Time;durP1;ratioP1;P1;durP2;ratioP2;P2;SDS_P1;SDS_P2;PMS_P1;PMS_P2;Temp;Humidity;BMP_temperature;BMP_pressure;BME280_temperature;BME280_humidity;BME280_pressure;Samples;Min_cycle;Max_cycle;Signal;HPM_P1;HPM_P2
2021/10/25 00:01:00;;;;;;;4.95;1.70;;;6.80;99.90;;;;;;5074216;28;19940;-66
2021/10/25 00:03:26;;;;;;;3.45;1.60;;;6.80;99.90;;;;;;5057738;28;20041;-67
2021/10/25 00:05:52;;;;;;;;;;;6.80;99.90;;;;;;5057260;28;20485;-67
2021/10/25 00:08:18;;;;;;;6.22;2.20;;;6.80;99.90;;;;;;5061826;28;20265;-67
2021/10/25 00:10:45;;;;;;;6.10;1.65;;;6.80;99.90;;;;;;5062094;28;20029;-66
2021/10/25 00:13:11;;;;;;;3.50;1.88;;;6.80;99.90;;;;;;5062841;28;20040;-66
2021/10/25 00:15:37;;;;;;;5.45;2.00;;;6.80;99.90;;;;;;5065569;28;20040;-66
2021/10/25 00:18:04;;;;;;;8.15;2.10;;;6.70;99.90;;;;;;5071353;28;20044;-66
2021/10/25 00:20:31;;;;;;;12.88;2.85;;;6.70;99.90;;;;;;5065495;28;20119;-66
2021/10/25 00:22:57;;;;;;;3.38;1.67;;;6.70;99.90;;;;;;5068933;28;20036;-66
2021/10/25 00:25:22;;;;;;;;;;;6.70;99.90;;;;;;5068606;28;20036;-66
2021/10/25 00:27:48;;;;;;;4.00;1.90;;;6.50;99.90;;;;;;5065539;28;19916;-66
2021/10/25 00:30:13;;;;;;;;;;;6.30;99.90;;;;;;5064852;28;20037;-66
2021/10/25 00:32:39;;;;;;;3.78;1.73;;;6.20;99.90;;;;;;5065479;28;20376;-66
2021/10/25 00:35:06;;;;;;;3.50;1.75;;;6.10;99.90;;;;;;5057315;28;20044;-67
2021/10/25 00:37:31;;;;;;;2.75;1.67;;;6.10;99.90;;;;;;5045074;28;20157;-66
2021/10/25 00:39:57;;;;;;;;;;;6.00;99.90;;;;;;5045973;28;20511;-66
2021/10/25 00:42:23;;;;;;;11.05;2.28;;;5.90;99.90;;;;;;5046948;28;20007;-66
2021/10/25 00:44:49;;;;;;;;;;;5.90;99.90;;;;;;5049573;28;20171;-66
2021/10/25 00:47:14;;;;;;;3.38;1.58;;;5.80;99.90;;;;;;5045178;28;20019;-66
2021/10/25 00:49:40;;;;;;;8.70;2.17;;;5.80;99.90;;;;;;5044936;28;20175;-66
2021/10/25 00:52:06;;;;;;;3.72;1.70;;;5.70;99.90;;;;;;5045123;28;20649;-66
2021/10/25 00:54:35;;;;;;;6.53;1.80;;;5.70;99.90;;;;;;5044153;28;20048;-66
2021/10/25 00:57:03;;;;;;;3.45;1.60;;;5.60;99.90;;;;;;5045729;28;20123;-66
2021/10/25 00:59:28;;;;;;;3.15;1.63;;;5.50;99.90;;;;;;5044543;28;20133;-66
2021/10/25 01:01:54;;;;;;;3.63;1.58;;;5.40;99.90;;;;;;5057775;28;20127;-65
2021/10/25 01:04:20;;;;;;;7.47;2.35;;;5.40;99.90;;;;;;5063719;28;20079;-66
2021/10/25 01:06:47;;;;;;;3.60;1.60;;;5.30;99.90;;;;;;5062485;28;20041;-66
2021/10/25 01:09:13;;;;;;;5.20;1.98;;;5.30;99.90;;;;;;5064506;28;20037;-64
2021/10/25 01:11:40;;;;;;;;;;;5.30;99.90;;;;;;5067224;28;20381;-64
2021/10/25 01:14:06;;;;;;;2.92;1.52;;;5.20;99.90;;;;;;5068569;28;19938;-63
2021/10/25 01:16:32;;;;;;;7.72;1.77;;;5.20;99.90;;;;;;5065061;28;20071;-64
2021/10/25 01:18:58;;;;;;;3.95;1.60;;;5.30;99.90;;;;;;5067417;28;20040;-65
2021/10/25 01:21:23;;;;;;;3.55;1.92;;;5.30;99.90;;;;;;5067506;28;20178;-64
2021/10/25 01:23:49;;;;;;;;;;;5.20;99.90;;;;;;5067975;28;20044;-64
2021/10/25 01:26:16;;;;;;;3.40;1.55;;;5.00;99.90;;;;;;5064999;28;19931;-64
2021/10/25 01:28:42;;;;;;;6.53;2.17;;;5.00;99.90;;;;;;5064924;28;20049;-64
2021/10/25 01:31:07;;;;;;;3.10;1.73;;;5.00;99.90;;;;;;5066503;28;20032;-65
2021/10/25 01:33:34;;;;;;;;;;;4.90;99.90;;;;;;5067960;28;20037;-65
2021/10/25 01:36:01;;;;;;;5.03;1.60;;;4.80;99.90;;;;;;5066579;28;20707;-64
2021/10/25 01:38:27;;;;;;;4.97;1.52;;;4.80;99.90;;;;;;5067839;28;20707;-65
2021/10/25 01:40:52;;;;;;;5.00;1.50;;;4.80;99.90;;;;;;5066591;28;20036;-64
2021/10/25 01:43:18;;;;;;;;;;;4.80;99.90;;;;;;5068196;28;20148;-64
2021/10/25 01:45:47;;;;;;;5.15;1.83;;;4.80;99.90;;;;;;5065786;28;19920;-65
2021/10/25 01:48:13;;;;;;;7.10;1.98;;;4.80;99.90;;;;;;5065188;28;20370;-65
2021/10/25 01:50:39;;;;;;;4.82;2.10;;;4.80;99.90;;;;;;5065111;28;20040;-64
2021/10/25 01:53:05;;;;;;;;;;;4.80;99.90;;;;;;5067473;28;20060;-64
2021/10/25 01:55:32;;;;;;;4.50;2.38;;;4.70;99.90;;;;;;5067000;28;19920;-64
2021/10/25 01:57:58;;;;;;;3.58;1.55;;;4.70;99.90;;;;;;5065562;28;20043;-64
2021/10/25 02:00:24;;;;;;;15.52;2.00;;;4.70;99.90;;;;;;5067413;28;20043;-64
2021/10/25 02:02:49;;;;;;;146.50;75.70;;;4.70;99.90;;;;;;5067296;28;20040;-64
2021/10/25 02:05:15;;;;;;;50.28;27.70;;;4.60;99.90;;;;;;5066751;28;20524;-64
2021/10/25 02:07:41;;;;;;;20.30;9.20;;;4.40;99.90;;;;;;5064341;28;20047;-63
2021/10/25 02:10:07;;;;;;;;;;;4.40;99.90;;;;;;5064146;28;20032;-64
2021/10/25 02:12:33;;;;;;;6.53;3.25;;;4.40;99.90;;;;;;5053199;28;19917;-64
2021/10/25 02:14:58;;;;;;;5.35;2.50;;;4.40;99.90;;;;;;5063623;28;20683;-64
2021/10/25 02:17:24;;;;;;;8.32;2.10;;;4.40;99.90;;;;;;5061099;28;20109;-65
2021/10/25 02:19:50;;;;;;;3.20;1.95;;;4.40;99.90;;;;;;5066302;28;20032;-65
2021/10/25 02:22:16;;;;;;;4.35;1.90;;;4.20;99.90;;;;;;5066440;28;20064;-65
2021/10/25 02:24:43;;;;;;;5.20;2.45;;;4.20;99.90;;;;;;5065039;28;20048;-65
2021/10/25 02:27:09;;;;;;;6.15;2.38;;;4.30;99.90;;;;;;5064559;28;20137;-65
2021/10/25 02:29:38;;;;;;;5.25;1.90;;;4.30;99.90;;;;;;5066505;28;20499;-65
2021/10/25 02:32:04;;;;;;;3.97;2.00;;;4.40;99.90;;;;;;5064343;28;20460;-65
2021/10/25 02:34:31;;;;;;;3.42;1.85;;;4.40;99.90;;;;;;5066666;28;20048;-65
2021/10/25 02:36:58;;;;;;;4.10;2.10;;;4.20;99.90;;;;;;5064883;28;20072;-65
2021/10/25 02:39:24;;;;;;;5.53;1.63;;;4.10;99.90;;;;;;5062183;28;20044;-65
2021/10/25 02:41:51;;;;;;;2.53;1.80;;;4.00;99.90;;;;;;5062786;28;20071;-66
2021/10/25 02:44:17;;;;;;;3.35;1.60;;;4.00;99.90;;;;;;5066817;28;20032;-65
2021/10/25 02:46:42;;;;;;;3.28;2.45;;;4.00;99.90;;;;;;5064575;28;20041;-65
2021/10/25 02:49:08;;;;;;;4.43;2.05;;;4.10;99.90;;;;;;5050589;28;20409;-65
2021/10/25 02:51:34;;;;;;;;;;;4.10;99.90;;;;;;5046960;28;20045;-65
2021/10/25 02:53:59;;;;;;;3.50;1.90;;;4.00;99.90;;;;;;5046641;28;19943;-65
2021/10/25 02:56:25;;;;;;;4.22;1.88;;;3.90;99.90;;;;;;5043757;28;20413;-65
2021/10/25 02:58:51;;;;;;;7.03;2.13;;;3.80;99.90;;;;;;5044229;28;20397;-64
2021/10/25 03:01:17;;;;;;;2.65;2.00;;;3.80;99.90;;;;;;5044578;28;20033;-65
2021/10/25 03:03:43;;;;;;;3.75;2.10;;;3.70;99.90;;;;;;5045746;28;20082;-65
2021/10/25 03:06:08;;;;;;;4.70;1.92;;;3.70;99.90;;;;;;5054194;28;20040;-65
2021/10/25 03:08:34;;;;;;;4.15;2.00;;;3.60;99.90;;;;;;5064154;28;20435;-64
2021/10/25 03:11:00;;;;;;;5.78;1.95;;;3.60;99.90;;;;;;5063722;28;20105;-65
2021/10/25 03:13:25;;;;;;;;;;;3.70;99.90;;;;;;5065336;28;20037;-65
2021/10/25 03:15:51;;;;;;;2.88;2.00;;;3.70;99.90;;;;;;5063851;28;19987;-65
2021/10/25 03:18:18;;;;;;;4.10;1.80;;;3.60;99.90;;;;;;5063479;28;20040;-64
2021/10/25 03:20:44;;;;;;;5.80;1.98;;;3.50;99.90;;;;;;5062169;28;20527;-65
2021/10/25 03:23:11;;;;;;;6.13;2.28;;;3.50;99.90;;;;;;5063718;28;20048;-65
2021/10/25 03:25:37;;;;;;;3.47;1.88;;;3.40;99.90;;;;;;5062853;28;20041;-65
2021/10/25 03:28:02;;;;;;;6.38;2.60;;;3.40;99.90;;;;;;5062949;28;20044;-64
2021/10/25 03:30:28;;;;;;;3.95;2.00;;;3.50;99.90;;;;;;5065234;28;20041;-64
2021/10/25 03:32:55;;;;;;;6.85;2.38;;;3.50;99.90;;;;;;5065945;28;20072;-64
2021/10/25 03:35:21;;;;;;;4.43;1.80;;;3.40;99.90;;;;;;5066007;28;20116;-65
2021/10/25 03:37:46;;;;;;;3.83;1.92;;;3.40;99.90;;;;;;5062852;28;20499;-64
2021/10/25 03:40:12;;;;;;;4.45;1.65;;;3.30;99.90;;;;;;5061915;28;20055;-65
2021/10/25 03:42:42;;;;;;;4.93;1.88;;;3.30;99.90;;;;;;5061776;28;20032;-64
2021/10/25 03:45:23;;;;;;;6.22;2.33;;;3.30;99.90;;;;;;5097106;28;20040;-65
2021/10/25 03:48:17;;;;;;;4.90;2.28;;;3.30;99.90;;;;;;5058487;28;20056;-65
2021/10/25 03:50:37;;;;;;;4.53;1.97;;;3.20;99.90;;;;;;5043713;28;20041;-62
2021/10/25 03:53:13;;;;;;;4.07;1.92;;;3.20;99.90;;;;;;5054391;28;20047;-64
2021/10/25 03:55:47;;;;;;;5.75;2.58;;;3.10;99.90;;;;;;5065665;28;20043;-63
2021/10/25 03:58:35;;;;;;;5.03;1.90;;;3.20;99.90;;;;;;5058868;28;20044;-65
2021/10/25 04:28:17;;;;;;;4.22;1.80;;;3.10;99.90;;;;;;5061252;28;20037;-62
2021/10/25 04:30:43;;;;;;;4.90;2.38;;;3.10;99.90;;;;;;5068638;28;20131;-61
2021/10/25 04:33:08;;;;;;;4.10;2.28;;;3.20;99.90;;;;;;5068449;28;20131;-67
2021/10/25 04:35:34;;;;;;;6.07;2.53;;;3.30;99.90;;;;;;5067844;28;20059;-65
2021/10/25 04:38:00;;;;;;;5.32;2.47;;;3.30;99.90;;;;;;5066226;28;20574;-63
2021/10/25 04:40:26;;;;;;;7.25;2.47;;;3.20;99.90;;;;;;5068744;28;20044;-63
2021/10/25 04:42:52;;;;;;;5.72;2.53;;;3.20;99.90;;;;;;5068222;28;20047;-62
2021/10/25 04:45:19;;;;;;;4.55;2.08;;;3.00;99.90;;;;;;5067691;28;20060;-62
2021/10/25 04:47:51;;;;;;;4.85;2.42;;;3.00;99.90;;;;;;5065212;28;20044;-63
2021/10/25 04:50:17;;;;;;;4.85;2.65;;;2.90;99.90;;;;;;5065502;28;20538;-63
2021/10/25 04:52:43;;;;;;;5.00;2.50;;;2.90;99.90;;;;;;5067073;28;20049;-64
2021/10/25 04:55:09;;;;;;;6.05;2.45;;;2.90;99.90;;;;;;5064750;28;20397;-63
2021/10/25 04:57:35;;;;;;;2.97;2.17;;;2.80;99.90;;;;;;5064686;28;20047;-63
2021/10/25 05:00:00;;;;;;;4.50;2.20;;;2.80;99.90;;;;;;5065374;28;20028;-63
2021/10/25 05:02:26;;;;;;;4.78;2.28;;;2.70;99.90;;;;;;5066860;28;20119;-61
2021/10/25 05:04:52;;;;;;;4.90;2.63;;;2.70;99.90;;;;;;5067258;28;20484;-62
2021/10/25 05:07:19;;;;;;;6.38;2.35;;;2.60;99.90;;;;;;5065643;28;20127;-64
2021/10/25 05:09:44;;;;;;;9.13;3.00;;;2.50;99.90;;;;;;5068334;28;20514;-64
2021/10/25 05:12:13;;;;;;;6.97;4.15;;;2.60;99.90;;;;;;5067530;28;20107;-63
2021/10/25 05:14:41;;;;;;;81.65;35.58;;;2.50;99.90;;;;;;5067375;28;20520;-63
2021/10/25 05:17:07;;;;;;;22.38;8.93;;;2.60;99.90;;;;;;5066308;28;20127;-64
2021/10/25 05:19:32;;;;;;;11.25;5.07;;;2.60;99.90;;;;;;5067988;28;20068;-64
2021/10/25 05:21:58;;;;;;;16.55;7.13;;;2.60;99.90;;;;;;5068555;28;20113;-63
2021/10/25 05:24:24;;;;;;;14.25;6.30;;;2.50;99.90;;;;;;5066805;28;20044;-63
2021/10/25 05:26:49;;;;;;;13.25;6.65;;;2.60;99.90;;;;;;5066582;28;20050;-64
2021/10/25 05:29:15;;;;;;;9.50;5.00;;;2.60;99.90;;;;;;5065939;28;20076;-62
2021/10/25 05:31:41;;;;;;;8.73;3.83;;;2.50;99.90;;;;;;5062859;28;20033;-64
2021/10/25 05:34:07;;;;;;;20.25;8.38;;;2.60;99.90;;;;;;5065274;28;20140;-64
2021/10/25 05:36:33;;;;;;;8.73;4.88;;;2.60;99.90;;;;;;5064156;28;20048;-64
2021/10/25 05:38:58;;;;;;;4.65;2.28;;;2.70;99.90;;;;;;5065019;28;20098;-63
2021/10/25 05:41:26;;;;;;;4.80;1.70;;;3.00;99.90;;;;;;5064253;28;20028;-63
2021/10/25 05:43:52;;;;;;;6.20;1.50;;;3.20;99.90;;;;;;5064876;28;20024;-63
2021/10/25 05:46:18;;;;;;;67.55;26.45;;;3.40;99.90;;;;;;5064437;28;20040;-64
2021/10/25 05:48:44;;;;;;;22.23;8.43;;;3.60;99.90;;;;;;5054289;28;20037;-63
2021/10/25 05:51:12;;;;;;;24.17;11.27;;;3.90;99.90;;;;;;5056871;28;20041;-63
2021/10/25 05:53:37;;;;;;;11.65;5.70;;;4.10;99.90;;;;;;5058830;28;20032;-63
2021/10/25 05:56:04;;;;;;;4.00;1.73;;;4.20;99.90;;;;;;5061336;28;20037;-64
2021/10/25 05:58:30;;;;;;;1.65;1.05;;;4.40;99.90;;;;;;5049334;28;20044;-64
2021/10/25 06:01:02;;;;;;;2.65;1.20;;;4.60;99.90;;;;;;5062721;28;20036;-64
2021/10/25 06:03:29;;;;;;;8.05;1.20;;;4.70;99.90;;;;;;5066415;28;20045;-63
2021/10/25 06:05:54;;;;;;;3.80;1.23;;;4.80;99.90;;;;;;5064718;28;20162;-63
2021/10/25 06:08:20;;;;;;;3.97;1.10;;;5.00;99.90;;;;;;5065798;28;20267;-63
2021/10/25 06:10:47;;;;;;;3.22;1.48;;;5.10;99.90;;;;;;5063781;28;20036;-64
2021/10/25 06:13:27;;;;;;;3.50;1.30;;;5.10;99.90;;;;;;5064192;28;20038;-64
2021/10/25 06:16:02;;;;;;;4.75;1.15;;;5.20;99.90;;;;;;5056822;28;20040;-64
2021/10/25 06:18:37;;;;;;;2.63;0.93;;;5.20;99.90;;;;;;5064461;28;20615;-64
2021/10/25 06:21:03;;;;;;;18.23;7.87;;;5.20;99.90;;;;;;5066622;28;20060;-64
2021/10/25 06:23:29;;;;;;;;;;;5.20;99.90;;;;;;5066144;28;20777;-64
2021/10/25 06:25:56;;;;;;;8.57;3.63;;;5.30;99.90;;;;;;5065275;28;20002;-64
2021/10/25 06:28:25;;;;;;;3.35;1.77;;;5.30;99.90;;;;;;5065844;28;20072;-63
2021/10/25 06:31:03;;;;;;;5.75;1.00;;;5.30;99.90;;;;;;5066731;28;20122;-63
2021/10/25 06:33:29;;;;;;;4.72;1.50;;;5.40;99.90;;;;;;5067144;28;20034;-63
2021/10/25 06:36:06;;;;;;;5.30;1.20;;;5.40;99.90;;;;;;5064846;28;20228;-64
2021/10/25 06:38:37;;;;;;;7.78;1.13;;;5.40;99.90;;;;;;5066080;28;20055;-64
2021/10/25 06:41:05;;;;;;;3.80;1.10;;;5.40;99.90;;;;;;5065687;28;20079;-64
2021/10/25 06:43:32;;;;;;;3.92;1.10;;;5.50;99.90;;;;;;5066007;28;20044;-63
2021/10/25 06:45:58;;;;;;;1.77;1.13;;;5.50;99.90;;;;;;5064327;28;20044;-63
2021/10/25 06:48:23;;;;;;;4.55;1.20;;;5.60;99.90;;;;;;5065624;28;20044;-64
2021/10/25 06:50:51;;;;;;;7.35;0.95;;;5.60;99.90;;;;;;5063916;28;20047;-62
2021/10/25 06:53:17;;;;;;;8.48;1.08;;;5.60;99.90;;;;;;5063991;28;20078;-63
2021/10/25 06:55:44;;;;;;;5.15;1.25;;;5.70;99.90;;;;;;5066002;28;20058;-64
2021/10/25 06:58:10;;;;;;;1.83;0.85;;;5.80;99.90;;;;;;5064278;28;20048;-63
2021/10/25 07:00:36;;;;;;;2.38;1.10;;;5.80;99.90;;;;;;5065847;28;20044;-63
2021/10/25 07:03:02;;;;;;;2.55;1.10;;;5.90;99.90;;;;;;5062947;28;20037;-65
2021/10/25 07:05:34;;;;;;;2.28;1.08;;;5.90;99.90;;;;;;5055495;28;20047;-63
2021/10/25 07:07:59;;;;;;;4.60;1.15;;;6.00;99.90;;;;;;5058333;28;20041;-63
2021/10/25 07:10:27;;;;;;;3.65;1.38;;;6.10;99.90;;;;;;5062931;28;20049;-64
2021/10/25 07:12:53;;;;;;;2.78;1.00;;;6.10;99.90;;;;;;5066633;28;20063;-64
2021/10/25 07:15:19;;;;;;;3.42;1.00;;;6.20;99.90;;;;;;5065785;28;20473;-63
2021/10/25 07:17:59;;;;;;;17.42;3.38;;;6.20;99.90;;;;;;5064362;28;20045;-63
2021/10/25 07:23:43;;;;;;;7.97;1.98;;;6.30;99.90;;;;;;5004081;28;20038;-63
2021/10/25 08:02:03;;;;;;;5.72;2.20;;;8.00;99.90;;;;;;5046770;28;20198;-63
2021/10/25 08:04:55;;;;;;;3.28;1.65;;;8.00;99.90;;;;;;5044953;28;20040;-63
2021/10/25 08:10:10;;;;;;;8.15;1.70;;;8.00;99.90;;;;;;5061834;28;20139;-63
2021/10/25 08:12:39;;;;;;;1.67;1.00;;;8.00;99.90;;;;;;5070104;28;20124;-63
2021/10/25 08:15:08;;;;;;;5.05;1.15;;;8.00;99.90;;;;;;5062110;28;20410;-63
2021/10/25 08:17:44;;;;;;;4.60;1.30;;;8.00;99.90;;;;;;5064082;28;20048;-62
2021/10/25 08:20:10;;;;;;;4.20;1.08;;;8.00;99.90;;;;;;5067731;28;20044;-63
2021/10/25 08:22:38;;;;;;;4.47;1.23;;;8.00;99.90;;;;;;5069665;28;20055;-63
2021/10/25 08:25:04;;;;;;;3.47;1.38;;;8.10;99.90;;;;;;5069342;28;20493;-63
2021/10/25 08:27:30;;;;;;;5.10;1.15;;;8.20;99.90;;;;;;5066369;28;20128;-63
2021/10/25 08:29:56;;;;;;;;;;;8.20;99.90;;;;;;5067658;28;20124;-63
2021/10/25 08:40:25;;;;;;;5.70;1.92;;;8.60;99.90;;;;;;5069308;28;20420;-63
2021/10/25 08:42:51;;;;;;;1.88;1.10;;;8.80;99.50;;;;;;5069192;28;20040;-64
2021/10/25 08:45:18;;;;;;;;;;;9.00;99.00;;;;;;5068902;28;20508;-63
2021/10/25 08:47:48;;;;;;;2.72;1.02;;;9.20;98.20;;;;;;5067346;28;19924;-63
2021/10/25 08:50:17;;;;;;;3.35;1.00;;;9.20;98.50;;;;;;5069539;28;20041;-63
2021/10/25 08:52:44;;;;;;;3.72;1.35;;;9.20;97.70;;;;;;5069361;28;20087;-62
2021/10/25 08:55:11;;;;;;;4.38;1.15;;;9.20;97.90;;;;;;5068616;28;20519;-63
2021/10/25 08:57:38;;;;;;;5.18;1.05;;;9.30;95.80;;;;;;5065979;28;20040;-63
2021/10/25 09:00:07;;;;;;;3.42;1.10;;;9.40;96.90;;;;;;5065117;28;20041;-64
2021/10/25 09:02:33;;;;;;;3.00;1.02;;;9.40;96.40;;;;;;5064676;28;20040;-63
2021/10/25 09:05:11;;;;;;;2.03;1.10;;;9.50;97.40;;;;;;5066382;28;20090;-63
2021/10/25 09:08:03;;;;;;;3.40;0.98;;;9.50;96.80;;;;;;5066992;28;20040;-63
2021/10/25 09:10:36;;;;;;;3.45;1.60;;;9.60;96.70;;;;;;5069086;28;20102;-63
2021/10/25 09:13:16;;;;;;;3.25;1.30;;;9.60;96.40;;;;;;5058284;28;20077;-63
2021/10/25 09:15:43;;;;;;;3.40;1.15;;;9.60;96.90;;;;;;5064929;28;20099;-63
2021/10/25 09:18:25;;;;;;;4.65;1.30;;;9.60;96.50;;;;;;5063772;28;20075;-64
2021/10/25 09:20:58;;;;;;;3.13;1.13;;;9.60;96.40;;;;;;5066044;28;20040;-63
2021/10/25 09:23:33;;;;;;;4.70;1.85;;;9.70;96.10;;;;;;5066056;28;20043;-63
2021/10/25 09:26:13;;;;;;;2.97;1.30;;;9.90;96.80;;;;;;5064022;28;20087;-63
2021/10/25 09:28:54;;;;;;;7.65;1.40;;;10.10;95.80;;;;;;5064298;28;20032;-63
2021/10/25 09:31:34;;;;;;;7.68;1.92;;;10.20;95.60;;;;;;5065529;28;20118;-64
2021/10/25 09:34:05;;;;;;;6.40;2.22;;;10.20;93.90;;;;;;5064969;28;20065;-64
2021/10/25 09:36:40;;;;;;;2.65;1.40;;;10.20;94.30;;;;;;5066125;28;20493;-62
2021/10/25 09:41:59;;;;;;;2.67;1.40;;;10.20;95.00;;;;;;5057648;28;20048;-63
2021/10/25 09:50:02;;;;;;;2.83;1.83;;;10.20;96.40;;;;;;5063109;28;20049;-63
2021/10/25 09:52:33;;;;;;;3.00;1.13;;;10.20;96.30;;;;;;5061071;28;20055;-63
2021/10/25 09:55:03;;;;;;;2.13;1.08;;;10.30;96.20;;;;;;5068076;28;20123;-64
2021/10/25 09:57:39;;;;;;;1.88;1.10;;;10.30;95.70;;;;;;5063172;28;20083;-65
2021/10/25 10:00:08;;;;;;;3.13;1.20;;;10.30;95.70;;;;;;5063125;28;20036;-63
2021/10/25 10:02:35;;;;;;;3.72;1.15;;;10.30;95.30;;;;;;5062151;28;20279;-64
2021/10/25 10:05:04;;;;;;;7.93;1.42;;;10.40;97.80;;;;;;5065390;28;20074;-63
2021/10/25 10:07:30;;;;;;;2.67;0.95;;;10.60;98.70;;;;;;5063239;28;20094;-63
2021/10/25 10:09:56;;;;;;;2.70;1.25;;;10.70;96.00;;;;;;5064552;28;20041;-63
2021/10/25 10:12:23;;;;;;;;;;;10.90;96.90;;;;;;5065610;28;20132;-66
2021/10/25 10:14:50;;;;;;;;;;;11.00;96.70;;;;;;5067485;28;19947;-63
2021/10/25 10:17:36;;;;;;;3.47;1.23;;;11.00;97.30;;;;;;5051217;28;19991;-63
2021/10/25 10:20:06;;;;;;;2.42;1.05;;;10.90;98.00;;;;;;5068470;28;20492;-63
2021/10/25 10:22:37;;;;;;;3.85;1.50;;;11.10;97.50;;;;;;5058367;28;20044;-62
2021/10/25 10:25:04;;;;;;;2.90;1.30;;;11.50;95.60;;;;;;5067303;28;20040;-63
2021/10/25 10:27:30;;;;;;;3.15;1.38;;;11.80;96.20;;;;;;5062916;28;20049;-63
2021/10/25 10:29:59;;;;;;;3.47;1.40;;;11.80;95.00;;;;;;5067487;28;20056;-62
2021/10/25 10:32:27;;;;;;;8.75;3.65;;;11.90;94.80;;;;;;5066581;28;20037;-63
2021/10/25 10:34:54;;;;;;;8.63;3.85;;;12.00;95.60;;;;;;5066499;28;20037;-63
2021/10/25 10:37:26;;;;;;;5.07;2.50;;;12.20;95.10;;;;;;5063809;28;20125;-60
2021/10/25 10:40:02;;;;;;;3.28;1.42;;;12.40;94.80;;;;;;5059130;28;20028;-65
2021/10/25 10:42:32;;;;;;;3.65;1.98;;;12.60;95.10;;;;;;5068439;23;20507;-63
2021/10/25 10:45:08;;;;;;;7.07;2.10;;;12.90;95.00;;;;;;5027064;28;20591;-64
2021/10/25 10:47:53;;;;;;;6.68;2.38;;;13.00;94.10;;;;;;5008403;28;20598;-64
2021/10/25 10:50:29;;;;;;;2.80;1.58;;;13.10;94.30;;;;;;5024626;28;20086;-63
2021/10/25 10:53:22;;;;;;;2.17;1.65;;;13.20;93.80;;;;;;5026925;28;20041;-65
2021/10/25 10:55:52;;;;;;;3.10;1.42;;;13.30;94.10;;;;;;5024741;28;20106;-65
2021/10/25 11:00:49;;;;;;;4.40;1.52;;;13.30;93.00;;;;;;5005278;28;20033;-65
2021/10/25 11:03:24;;;;;;;2.85;1.30;;;13.40;92.90;;;;;;5021906;28;20065;-65
2021/10/25 11:06:04;;;;;;;2.42;1.00;;;13.50;93.60;;;;;;5018303;28;20050;-65
2021/10/25 11:08:33;;;;;;;4.88;1.40;;;13.50;93.20;;;;;;5021493;28;20045;-65
2021/10/25 11:10:58;;;;;;;2.25;1.02;;;13.60;92.90;;;;;;5026201;28;20042;-64
2021/10/25 11:13:26;;;;;;;;;;;13.70;93.00;;;;;;5026397;28;20555;-65
2021/10/25 11:16:08;;;;;;;3.10;1.02;;;13.70;92.80;;;;;;5022743;28;19917;-65
2021/10/25 11:18:36;;;;;;;3.38;1.45;;;13.70;92.50;;;;;;5015120;28;20402;-65
2021/10/25 11:21:25;;;;;;;4.38;1.27;;;13.70;93.00;;;;;;5022975;28;20041;-65
2021/10/25 11:23:55;;;;;;;3.72;1.35;;;13.40;92.50;;;;;;5022209;28;20123;-65
2021/10/25 11:26:27;;;;;;;4.20;1.20;;;13.20;93.00;;;;;;5023196;28;20045;-65
2021/10/25 11:28:59;;;;;;;5.95;1.50;;;13.00;93.50;;;;;;5022232;28;20053;-65
2021/10/25 11:31:26;;;;;;;3.38;1.50;;;12.90;93.80;;;;;;5022701;28;20103;-65
2021/10/25 11:33:52;;;;;;;4.63;1.35;;;12.80;93.50;;;;;;5024748;28;20711;-65
2021/10/25 11:36:20;;;;;;;;;;;12.90;93.50;;;;;;5023282;28;20030;-68
2021/10/25 11:38:46;;;;;;;3.45;1.58;;;12.90;94.40;;;;;;5023995;28;19996;-67
2021/10/25 11:41:12;;;;;;;;;;;13.00;93.30;;;;;;5026213;28;20140;-64
2021/10/25 11:43:37;;;;;;;2.47;1.20;;;13.00;94.00;;;;;;5022507;28;20565;-69
2021/10/25 11:46:17;;;;;;;;;;;13.00;93.70;;;;;;5004427;28;20041;-63
2021/10/25 11:48:51;;;;;;;3.40;1.50;;;13.10;94.10;;;;;;5014865;28;20067;-64
2021/10/25 11:51:16;;;;;;;4.80;1.25;;;13.20;94.00;;;;;;5024371;28;20083;-63
2021/10/25 11:53:42;;;;;;;;;;;13.20;94.10;;;;;;5026423;28;20132;-63
2021/10/25 11:56:14;;;;;;;3.75;1.20;;;13.20;93.40;;;;;;5024641;28;19917;-65
2021/10/25 11:58:42;;;;;;;4.60;1.25;;;13.20;94.40;;;;;;5022902;28;20127;-64
2021/10/25 12:01:13;;;;;;;7.70;1.33;;;13.30;94.20;;;;;;5023606;28;20038;-64
2021/10/25 12:03:39;;;;;;;3.55;1.30;;;13.20;94.10;;;;;;5025754;28;20042;-65
2021/10/25 12:06:17;;;;;;;4.43;2.20;;;13.30;94.30;;;;;;5023980;28;20048;-64
2021/10/25 12:09:01;;;;;;;5.88;1.40;;;13.30;94.20;;;;;;5025057;28;20061;-65
2021/10/25 12:11:54;;;;;;;4.05;1.63;;;13.30;94.20;;;;;;5025710;28;20033;-64
2021/10/25 12:14:27;;;;;;;5.35;1.60;;;13.30;94.80;;;;;;5026500;28;20044;-65
2021/10/25 12:16:53;;;;;;;2.38;1.27;;;13.40;94.30;;;;;;5019787;28;20383;-64
2021/10/25 12:19:19;;;;;;;3.85;1.30;;;13.40;94.80;;;;;;5027075;28;20124;-64
2021/10/25 12:21:45;;;;;;;;;;;13.40;94.40;;;;;;5030099;28;20113;-64
2021/10/25 12:24:12;;;;;;;3.05;1.42;;;13.40;94.80;;;;;;5028944;28;20020;-65
2021/10/25 12:26:39;;;;;;;3.40;1.50;;;13.30;94.60;;;;;;5027848;28;20041;-64
2021/10/25 12:29:19;;;;;;;2.70;1.15;;;13.30;94.70;;;;;;5028860;28;20516;-64
2021/10/25 12:31:46;;;;;;;2.75;1.17;;;13.20;94.70;;;;;;5029021;28;20152;-65
2021/10/25 12:34:13;;;;;;;4.10;1.60;;;13.20;94.60;;;;;;5029292;28;20140;-65
2021/10/25 12:36:44;;;;;;;4.30;1.23;;;13.20;95.20;;;;;;5025574;28;20050;-64
2021/10/25 12:39:16;;;;;;;4.03;1.23;;;13.20;94.80;;;;;;5026378;28;20044;-65
2021/10/25 12:41:58;;;;;;;3.90;1.42;;;13.30;95.50;;;;;;5026120;28;20079;-65
2021/10/25 12:44:33;;;;;;;4.18;1.40;;;13.30;96.00;;;;;;5026144;28;20038;-64
2021/10/25 12:47:16;;;;;;;2.58;1.17;;;13.30;95.40;;;;;;5025944;28;20620;-63
2021/10/25 12:49:51;;;;;;;7.35;2.45;;;13.20;95.20;;;;;;5007789;28;20057;-64
2021/10/25 12:52:18;;;;;;;5.80;3.42;;;13.20;95.60;;;;;;5006255;28;20092;-64
2021/10/25 12:54:46;;;;;;;3.58;1.98;;;13.10;95.60;;;;;;5007831;28;21094;-64
2021/10/25 12:57:24;;;;;;;6.05;1.90;;;13.10;96.20;;;;;;5020471;28;20051;-65
2021/10/25 13:00:07;;;;;;;6.07;2.38;;;13.10;96.00;;;;;;5026982;28;20041;-65
2021/10/25 13:02:38;;;;;;;5.15;1.13;;;13.00;95.90;;;;;;5028751;28;20499;-64
2021/10/25 13:05:11;;;;;;;4.18;1.20;;;13.00;96.90;;;;;;5008922;28;20096;-65
2021/10/25 13:07:36;;;;;;;3.88;2.03;;;13.00;96.20;;;;;;5016864;28;20045;-64
2021/10/25 13:10:07;;;;;;;;;;;13.00;96.30;;;;;;5029548;28;20037;-64
2021/10/25 13:12:33;;;;;;;11.00;1.75;;;13.00;96.70;;;;;;5028588;28;19917;-64
2021/10/25 13:14:58;;;;;;;;;;;13.00;96.20;;;;;;5028256;28;20045;-64
2021/10/25 13:17:24;;;;;;;3.65;1.70;;;13.00;96.20;;;;;;5007467;28;19927;-64
2021/10/25 13:19:49;;;;;;;;;;;13.00;96.40;;;;;;5027205;28;20052;-64
2021/10/25 13:22:15;;;;;;;11.23;4.78;;;12.90;96.70;;;;;;5022338;28;19923;-64
2021/10/25 13:24:40;;;;;;;;;;;12.80;96.90;;;;;;5017913;28;20417;-65
2021/10/25 13:27:07;;;;;;;8.20;3.10;;;12.70;97.10;;;;;;5026546;28;20398;-64
2021/10/25 13:29:32;;;;;;;6.05;1.77;;;12.60;97.40;;;;;;5025739;28;20053;-65
2021/10/25 13:31:58;;;;;;;;;;;12.50;97.70;;;;;;5027511;28;20038;-65
2021/10/25 13:34:23;;;;;;;2.95;1.60;;;12.40;97.90;;;;;;5028182;28;19924;-65
2021/10/25 13:36:50;;;;;;;;;;;12.40;98.40;;;;;;5028028;28;20041;-65
2021/10/25 13:39:18;;;;;;;6.90;2.13;;;12.40;99.10;;;;;;5025305;28;19965;-65
2021/10/25 13:41:44;;;;;;;2.85;1.60;;;12.40;98.00;;;;;;5028274;28;20148;-64
2021/10/25 13:44:11;;;;;;;5.93;2.08;;;12.40;98.60;;;;;;5025379;28;20567;-64
2021/10/25 13:46:37;;;;;;;7.43;2.40;;;12.30;98.30;;;;;;5026649;28;20041;-64
2021/10/25 13:49:04;;;;;;;;;;;12.30;98.50;;;;;;5019124;28;20557;-64
2021/10/25 13:51:31;;;;;;;3.53;1.77;;;12.30;98.70;;;;;;5028303;28;20007;-67
2021/10/25 13:53:56;;;;;;;4.55;1.80;;;12.30;99.10;;;;;;5027893;28;20041;-64
2021/10/25 13:56:22;;;;;;;;;;;12.30;99.30;;;;;;5027282;28;20122;-65
2021/10/25 13:58:48;;;;;;;5.38;2.30;;;12.20;99.60;;;;;;5025439;28;19986;-66
2021/10/25 14:01:14;;;;;;;5.15;2.40;;;12.10;99.00;;;;;;5025326;28;20037;-63
2021/10/25 14:03:42;;;;;;;11.77;3.10;;;12.20;98.90;;;;;;5024028;28;20061;-64
2021/10/25 14:06:10;;;;;;;39.72;22.27;;;12.10;99.50;;;;;;5024149;28;20056;-64
2021/10/25 14:08:35;;;;;;;35.42;19.77;;;12.10;99.90;;;;;;5027014;28;20106;-64
2021/10/25 14:11:01;;;;;;;;;;;12.10;99.90;;;;;;5027282;28;20042;-63
2021/10/25 14:16:10;;;;;;;;;;;12.00;99.90;;;;;;5025737;28;20032;-63
2021/10/25 14:18:37;;;;;;;9.80;3.17;;;12.00;99.90;;;;;;5025757;28;19917;-63
2021/10/25 14:21:03;;;;;;;4.80;2.08;;;12.00;99.90;;;;;;5024973;28;20045;-64
2021/10/25 14:23:29;;;;;;;7.78;2.53;;;12.00;99.90;;;;;;5024335;28;20049;-67
2021/10/25 14:25:55;;;;;;;5.22;2.53;;;12.00;99.90;;;;;;5025250;28;20077;-65
2021/10/25 14:28:22;;;;;;;;;;;12.00;99.90;;;;;;5027068;28;20525;-64
2021/10/25 14:30:48;;;;;;;9.05;5.05;;;12.00;99.90;;;;;;5026886;28;19917;-64
2021/10/25 14:33:13;;;;;;;;;;;12.00;99.90;;;;;;5027873;28;20115;-64
2021/10/25 14:35:39;;;;;;;5.60;2.03;;;12.00;99.90;;;;;;5026674;28;20446;-62
2021/10/25 14:38:08;;;;;;;;;;;12.00;99.90;;;;;;5024756;28;20751;-64
2021/10/25 14:40:46;;;;;;;13.27;8.75;;;11.90;99.90;;;;;;5024511;28;19917;-63